createdAt,value
2023-01-13T00:00:39.355Z,24.95
2023-01-13T00:02:41.458Z,21.77
2023-01-13T00:04:43.603Z,20.77
2023-01-13T00:06:45.516Z,25.67
2023-01-13T00:10:52.991Z,24.63
2023-01-13T00:12:55.035Z,21.08
2023-01-13T00:14:57.003Z,31.33
2023-01-13T00:16:58.869Z,23.40
2023-01-13T00:21:04.535Z,19.90
2023-01-13T00:23:06.469Z,26.20
2023-01-13T00:27:10.660Z,22.20
2023-01-13T00:29:12.770Z,19.95
2023-01-13T00:31:17.660Z,26.67
2023-01-13T00:33:19.851Z,26.77
2023-01-13T00:35:21.750Z,23.67
2023-01-13T00:39:25.730Z,18.38
2023-01-13T00:41:28.167Z,24.52
2023-01-13T00:43:33.519Z,19.25
2023-01-13T00:45:35.446Z,21.70
2023-01-13T00:49:39.321Z,20.83
2023-01-13T00:51:41.290Z,23.55
2023-01-13T00:55:46.110Z,29.63
2023-01-13T00:59:49.830Z,20.98
2023-01-13T01:03:54.830Z,17.67
2023-01-13T01:05:58.188Z,22.60
2023-01-13T01:08:00.120Z,19.27
2023-01-13T01:12:04.327Z,27.25
2023-01-13T01:14:06.235Z,27.48
2023-01-13T01:18:11.768Z,34.80
2023-01-13T01:22:15.562Z,22.67
2023-01-13T01:26:25.877Z,21.88
2023-01-13T01:28:27.861Z,27.30
2023-01-13T01:30:29.835Z,24.42
2023-01-13T01:32:34.815Z,14.20
2023-01-13T01:34:36.740Z,26.48
2023-01-13T01:36:39.656Z,26.73
2023-01-13T01:38:41.621Z,23.10
2023-01-13T01:40:43.533Z,25.30
2023-01-13T01:45:22.706Z,21.98
2023-01-13T01:47:26.884Z,24.55
2023-01-13T01:49:36.966Z,21.55
2023-01-13T01:51:49.963Z,22.67
2023-01-13T01:53:53.629Z,26.77
2023-01-13T01:55:57.673Z,26.83
2023-01-13T01:58:13.946Z,25.23
2023-01-13T02:00:16.070Z,20.30
2023-01-13T02:02:18.538Z,26.38
2023-01-13T02:04:30.659Z,25.17
2023-01-13T04:15:41.278Z,36.55
2023-01-13T04:17:43.185Z,37.78
2023-01-13T04:21:47.194Z,31.67
2023-01-13T04:23:51.453Z,29.38
2023-01-13T04:25:53.811Z,33.50
2023-01-13T04:27:55.754Z,23.52
2023-01-13T04:31:59.362Z,28.05
2023-01-13T04:36:03.027Z,29.50
2023-01-13T04:40:10.166Z,25.90
2023-01-13T04:42:12.029Z,28.23
2023-01-13T04:46:15.739Z,36.33
2023-01-13T04:48:17.735Z,33.65
2023-01-13T04:50:19.964Z,32.00
2023-01-13T04:52:21.894Z,27.55
2023-01-13T04:56:25.693Z,24.35
2023-01-13T05:00:29.612Z,34.15
2023-01-13T05:02:31.449Z,28.33
2023-01-13T05:06:35.217Z,26.42
2023-01-13T05:10:38.916Z,32.05
2023-01-13T05:12:59.437Z,27.52
2023-01-13T05:15:19.661Z,40.00
2023-01-13T05:17:24.589Z,33.40
2023-01-13T05:19:39.181Z,33.08
2023-01-13T05:21:59.503Z,35.58
2023-01-13T05:24:19.851Z,32.47
2023-01-13T05:26:23.485Z,29.40
2023-01-13T05:28:25.351Z,32.55
2023-01-13T05:32:30.514Z,30.13
2023-01-13T05:34:32.726Z,34.95
2023-01-13T05:36:34.671Z,44.78
2023-01-13T05:40:59.569Z,35.35
2023-01-13T05:43:25.488Z,50.65
2023-01-13T05:45:27.443Z,34.13
2023-01-13T05:49:31.325Z,36.97
2023-01-13T05:51:33.199Z,41.28
2023-01-13T05:55:42.280Z,42.75
2023-01-13T05:57:44.733Z,41.40
2023-01-13T05:59:46.592Z,33.45
2023-01-13T06:03:50.295Z,38.83
2023-01-13T08:14:40.094Z,27.05
2023-01-13T08:18:43.969Z,29.00
2023-01-13T08:22:47.731Z,23.33
2023-01-13T08:26:51.460Z,23.02
2023-01-13T08:30:55.652Z,27.48
2023-01-13T08:32:57.718Z,26.73
2023-01-13T08:34:59.616Z,26.50
2023-01-13T08:39:03.913Z,27.00
2023-01-13T08:41:10.861Z,30.45
2023-01-13T08:43:12.749Z,27.95
2023-01-13T08:47:16.685Z,25.42
2023-01-13T08:51:20.840Z,29.88
2023-01-13T08:53:22.754Z,23.60
2023-01-13T08:57:26.551Z,27.92
2023-01-13T08:59:28.494Z,23.15
2023-01-13T09:03:59.813Z,31.15
2023-01-13T09:06:01.891Z,21.85
2023-01-13T09:08:03.783Z,26.27
2023-01-13T09:12:30.536Z,21.13
2023-01-13T09:14:35.094Z,22.83
2023-01-13T09:16:37.032Z,27.35
2023-01-13T09:20:40.696Z,22.30
2023-01-13T09:24:44.928Z,24.23
2023-01-13T09:26:47.320Z,23.13
2023-01-13T09:28:49.207Z,29.35
2023-01-13T09:30:53.683Z,23.88
2023-01-13T09:33:18.415Z,25.17
2023-01-13T09:35:20.352Z,25.70
2023-01-13T09:39:23.997Z,22.42
2023-01-13T09:41:47.541Z,29.15
2023-01-13T09:43:54.767Z,27.48
2023-01-13T09:46:04.609Z,27.90
2023-01-13T09:48:19.495Z,31.45
2023-01-13T09:50:52.943Z,26.98
2023-01-13T09:52:55.172Z,23.02
2023-01-13T09:55:26.888Z,19.77
2023-01-13T09:57:32.609Z,21.30
2023-01-13T09:59:36.563Z,23.17
2023-01-13T12:23:02.359Z,32.92
2023-01-13T12:25:31.269Z,27.90
2023-01-13T12:27:51.661Z,29.88
2023-01-13T12:29:59.674Z,25.15
2023-01-13T12:32:05.125Z,29.80
2023-01-13T12:34:22.100Z,20.35
2023-01-13T12:36:39.031Z,27.27
2023-01-13T12:38:58.591Z,24.83
2023-01-13T12:41:13.067Z,29.38
2023-01-13T12:43:37.692Z,37.85
2023-01-13T12:45:39.642Z,26.25
2023-01-13T12:49:47.354Z,29.23
2023-01-13T12:51:52.437Z,33.03
2023-01-13T12:53:56.413Z,29.70
2023-01-13T12:56:22.028Z,32.08
2023-01-13T12:58:28.784Z,27.52
2023-01-13T13:00:39.878Z,32.55
2023-01-13T13:03:03.570Z,27.17
2023-01-13T13:05:14.828Z,30.42
2023-01-13T13:07:31.279Z,25.30
2023-01-13T13:09:49.492Z,32.30
2023-01-13T13:12:03.563Z,36.78
2023-01-13T13:14:10.585Z,32.38
2023-01-13T13:16:46.447Z,25.20
2023-01-13T13:18:50.051Z,22.65
2023-01-13T13:21:11.219Z,25.20
2023-01-13T13:23:48.554Z,29.55
2023-01-13T13:26:16.599Z,22.65
2023-01-13T13:28:19.884Z,28.70
2023-01-13T13:30:34.843Z,30.20
2023-01-13T13:33:15.532Z,27.30
2023-01-13T13:35:23.289Z,29.02
2023-01-13T13:37:27.748Z,30.40
2023-01-13T13:39:50.706Z,33.33
2023-01-13T13:42:20.235Z,29.40
2023-01-13T13:44:46.035Z,34.33
2023-01-13T13:46:50.738Z,28.42
2023-01-13T13:48:55.541Z,37.97
2023-01-13T13:51:04.878Z,29.73
2023-01-13T13:53:08.439Z,31.35
2023-01-13T13:55:24.568Z,36.70
2023-01-13T13:57:33.475Z,34.22
2023-01-13T13:59:39.791Z,29.63
2023-01-13T16:13:43.995Z,84.18
2023-01-13T16:15:50.301Z,75.13
2023-01-13T16:17:59.998Z,70.15
2023-01-13T16:20:03.777Z,68.68
2023-01-13T16:22:05.716Z,74.50
2023-01-13T16:26:16.934Z,86.95
2023-01-13T16:28:24.414Z,85.32
2023-01-13T16:30:35.812Z,86.18
2023-01-13T16:32:37.813Z,88.00
2023-01-13T16:36:41.489Z,81.32
2023-01-13T16:40:45.456Z,79.95
2023-01-13T16:42:47.387Z,87.93
2023-01-13T16:46:51.866Z,82.32
2023-01-13T16:50:56.671Z,76.93
2023-01-13T16:55:01.050Z,73.35
2023-01-13T16:57:03.154Z,81.63
2023-01-13T16:59:17.069Z,84.60
2023-01-13T17:01:21.962Z,80.28
2023-01-13T17:03:23.990Z,85.75
2023-01-13T17:07:46.285Z,80.78
2023-01-13T17:09:48.195Z,106.72
2023-01-13T17:13:52.073Z,94.00
2023-01-13T17:15:54.063Z,93.75
2023-01-13T17:19:59.955Z,80.35
2023-01-13T17:22:01.882Z,78.50
2023-01-13T17:26:07.849Z,84.72
2023-01-13T17:28:09.767Z,61.50
2023-01-13T17:32:25.578Z,62.35
2023-01-13T17:34:34.008Z,58.45
2023-01-13T17:36:39.069Z,52.03
2023-01-13T17:38:40.947Z,58.42
2023-01-13T17:40:51.879Z,53.67
2023-01-13T17:43:05.475Z,57.88
2023-01-13T17:45:16.398Z,51.20
2023-01-13T17:47:47.296Z,55.00
2023-01-13T17:49:52.402Z,59.60
2023-01-13T17:52:00.203Z,53.55
2023-01-13T17:54:12.361Z,51.58
2023-01-13T17:56:21.181Z,57.42
2023-01-13T17:58:26.255Z,56.58
2023-01-13T18:00:30.853Z,51.67
2023-01-13T20:13:42.742Z,70.85
2023-01-13T20:17:46.770Z,62.60
2023-01-13T20:21:50.680Z,51.90
2023-01-13T20:23:53.378Z,49.72
2023-01-13T20:25:55.297Z,58.65
2023-01-13T20:27:57.242Z,53.08
2023-01-13T20:32:01.631Z,53.95
2023-01-13T20:34:03.599Z,51.63
2023-01-13T20:38:07.623Z,50.65
2023-01-13T20:42:32.029Z,56.25
2023-01-13T20:44:34.223Z,46.80
2023-01-13T20:46:36.181Z,53.67
2023-01-13T20:50:40.391Z,40.35
2023-01-13T20:52:42.421Z,52.70
2023-01-13T20:54:44.304Z,44.67
2023-01-13T20:56:46.426Z,54.40
2023-01-13T20:58:48.402Z,53.15
2023-01-13T21:02:52.312Z,60.70
2023-01-13T21:04:54.333Z,53.22
2023-01-13T21:09:01.216Z,54.92
2023-01-13T21:11:05.314Z,61.38
2023-01-13T21:13:25.591Z,52.45
2023-01-13T21:15:28.012Z,50.22
2023-01-13T21:17:48.443Z,55.80
2023-01-13T21:19:50.806Z,42.42
2023-01-13T21:21:52.838Z,46.53
2023-01-13T21:23:54.813Z,54.42
2023-01-13T21:28:05.596Z,53.33
2023-01-13T21:30:08.406Z,50.28
2023-01-13T21:32:10.734Z,50.28
2023-01-13T21:34:12.647Z,46.30
2023-01-13T21:38:18.386Z,43.75
2023-01-13T21:42:42.555Z,40.92
2023-01-13T21:45:04.215Z,45.13
2023-01-13T21:47:38.301Z,39.10
2023-01-13T21:49:44.194Z,43.10
2023-01-13T21:51:46.199Z,52.35
2023-01-13T21:55:52.517Z,47.85
2023-01-13T21:58:06.571Z,63.13
2023-01-13T22:00:09.037Z,62.20
2023-01-13T22:24:08.152Z,75.57
2023-01-13T22:26:10.420Z,62.15
2023-01-13T22:28:13.941Z,62.40
2023-01-13T22:30:18.996Z,71.95
2023-01-13T22:32:21.326Z,60.75
2023-01-13T22:34:23.417Z,64.63
2023-01-13T22:36:25.680Z,65.82
2023-01-13T22:38:27.824Z,72.75
2023-01-13T22:40:29.714Z,72.68
2023-01-13T22:42:31.808Z,68.40
2023-01-13T22:46:35.828Z,66.97
2023-01-13T22:50:39.927Z,50.42
2023-01-13T22:52:41.898Z,66.88
2023-01-13T22:56:46.173Z,59.85
2023-01-13T23:00:51.987Z,58.42
2023-01-13T23:02:53.995Z,54.30
2023-01-13T23:06:58.062Z,52.08
2023-01-13T23:09:01.156Z,53.50
2023-01-13T23:11:05.154Z,59.42
2023-01-13T23:13:07.325Z,54.10
2023-01-13T23:15:09.841Z,58.67
2023-01-13T23:17:12.001Z,54.55
2023-01-13T23:19:14.168Z,51.65
2023-01-13T23:21:19.338Z,48.90
2023-01-13T23:23:24.324Z,43.13
2023-01-13T23:25:27.118Z,47.83
2023-01-13T23:27:29.241Z,50.53
2023-01-13T23:29:31.314Z,41.63
2023-01-13T23:31:34.152Z,50.42
2023-01-13T23:33:37.856Z,55.70
2023-01-13T23:35:39.951Z,51.80
2023-01-13T23:37:42.066Z,42.20
2023-01-13T23:39:44.229Z,39.75
2023-01-13T23:41:46.339Z,65.25
2023-01-13T23:43:57.896Z,41.75
2023-01-13T23:46:08.703Z,64.15
2023-01-13T23:48:10.832Z,50.63
2023-01-13T23:50:17.199Z,38.85
2023-01-13T23:52:19.656Z,36.88
2023-01-13T23:54:21.834Z,52.20
2023-01-13T23:56:26.298Z,46.45
2023-01-13T23:58:30.204Z,40.95
